createdAt,value
2018-07-17T00:03:24.013Z,94.60
2018-07-17T00:05:52.941Z,94.00
2018-07-17T00:08:21.830Z,95.20
2018-07-17T00:10:50.784Z,95.10
2018-07-17T00:13:19.712Z,94.80
2018-07-17T00:15:48.629Z,94.60
2018-07-17T00:18:17.554Z,94.50
2018-07-17T00:20:46.661Z,95.30
2018-07-17T00:25:44.347Z,95.10
2018-07-17T00:30:42.571Z,95.00
2018-07-17T00:33:11.812Z,95.50
2018-07-17T00:35:40.742Z,95.90
2018-07-17T00:38:09.789Z,95.80
2018-07-17T00:40:38.818Z,96.70
2018-07-17T00:43:07.755Z,96.60
2018-07-17T00:45:36.759Z,96.80
2018-07-17T00:48:05.713Z,96.90
2018-07-17T00:50:34.683Z,96.50
2018-07-17T00:53:03.656Z,97.70
2018-07-17T01:00:35.097Z,97.40
2018-07-17T01:03:09.552Z,97.60
2018-07-17T01:05:43.961Z,98.10
2018-07-17T01:08:18.171Z,98.20
2018-07-17T01:10:52.602Z,98.40
2018-07-17T01:13:26.988Z,98.40
2018-07-17T01:15:56.505Z,98.30
2018-07-17T01:18:25.474Z,98.00
2018-07-17T01:20:54.460Z,97.70
2018-07-17T01:23:23.545Z,98.00
2018-07-17T01:25:52.469Z,98.40
2018-07-17T01:28:21.456Z,98.20
2018-07-17T01:30:50.454Z,98.90
2018-07-17T01:33:19.425Z,99.20
2018-07-17T01:35:48.373Z,99.90
2018-07-17T01:38:17.398Z,99.90
2018-07-17T01:40:46.294Z,99.90
2018-07-17T01:43:15.236Z,99.90
2018-07-17T01:48:13.078Z,99.90
2018-07-17T01:50:42.009Z,99.90
2018-07-17T01:53:10.959Z,99.90
2018-07-17T01:55:39.974Z,99.90
2018-07-17T01:58:08.943Z,99.90
2018-07-17T02:00:37.937Z,99.90
2018-07-17T02:03:06.934Z,99.90
2018-07-17T02:05:35.933Z,99.90
2018-07-17T02:08:04.879Z,99.90
2018-07-17T02:10:33.822Z,99.90
2018-07-17T02:13:02.764Z,99.90
2018-07-17T02:15:31.715Z,99.90
2018-07-17T02:18:00.818Z,99.90
2018-07-17T02:20:29.730Z,99.90
2018-07-17T02:22:58.640Z,99.90
2018-07-17T02:25:27.586Z,99.90
2018-07-17T02:27:56.675Z,99.90
2018-07-17T02:30:25.633Z,99.90
2018-07-17T02:32:54.565Z,99.90
2018-07-17T02:35:23.541Z,99.90
2018-07-17T02:37:52.545Z,99.90
2018-07-17T02:40:21.534Z,99.90
2018-07-17T02:42:50.499Z,99.90
2018-07-17T02:45:19.469Z,99.90
2018-07-17T02:47:48.467Z,99.90
2018-07-17T02:50:17.393Z,99.90
2018-07-17T02:52:46.339Z,99.90
2018-07-17T02:55:15.240Z,99.90
2018-07-17T02:57:44.172Z,99.90
2018-07-17T03:00:13.119Z,99.90
2018-07-17T03:02:42.129Z,99.90
2018-07-17T03:05:11.062Z,99.90
2018-07-17T03:07:40.004Z,99.90
2018-07-17T03:10:08.949Z,99.90
2018-07-17T03:12:38.125Z,99.90
2018-07-17T03:15:07.093Z,99.90
2018-07-17T03:17:36.087Z,99.90
2018-07-17T03:20:05.077Z,99.90
2018-07-17T03:22:34.041Z,99.90
2018-07-17T03:25:02.934Z,99.90
2018-07-17T03:27:31.883Z,99.90
2018-07-17T03:30:00.817Z,99.90
2018-07-17T03:32:29.764Z,99.90
2018-07-17T03:34:58.782Z,99.90
2018-07-17T03:37:27.722Z,99.90
2018-07-17T03:44:54.490Z,99.90
2018-07-17T03:47:23.479Z,99.90
2018-07-17T03:49:52.449Z,99.90
2018-07-17T03:52:21.511Z,99.90
2018-07-17T03:54:50.457Z,99.90
2018-07-17T03:57:19.658Z,99.90
2018-07-17T03:59:48.593Z,99.90
2018-07-17T04:02:17.489Z,99.90
2018-07-17T04:04:46.467Z,99.90
2018-07-17T04:07:15.403Z,99.90
2018-07-17T04:12:13.529Z,99.90
2018-07-17T04:14:42.453Z,99.90
2018-07-17T04:17:11.422Z,99.90
2018-07-17T04:19:40.429Z,99.90
2018-07-17T04:22:09.434Z,99.90
2018-07-17T04:24:38.373Z,99.90
2018-07-17T04:27:07.325Z,99.90
2018-07-17T04:29:36.309Z,99.90
2018-07-17T04:32:05.281Z,99.90
2018-07-17T04:34:34.217Z,99.90
2018-07-17T04:37:03.129Z,99.90
2018-07-17T04:39:32.071Z,99.90
2018-07-17T04:42:01.013Z,99.90
2018-07-17T04:44:29.958Z,99.90
2018-07-17T04:46:58.897Z,99.90
2018-07-17T04:49:27.848Z,99.90
2018-07-17T04:51:56.800Z,99.90
2018-07-17T04:54:25.725Z,99.90
2018-07-17T04:59:23.286Z,99.90
2018-07-17T05:01:52.325Z,99.90
2018-07-17T05:04:21.233Z,99.90
2018-07-17T05:06:50.222Z,99.90
2018-07-17T05:09:19.179Z,99.90
2018-07-17T05:11:48.638Z,99.30
2018-07-17T05:14:17.567Z,98.60
2018-07-17T05:16:46.521Z,97.90
2018-07-17T05:19:15.619Z,97.50
2018-07-17T05:21:44.526Z,96.70
2018-07-17T05:24:13.476Z,97.20
2018-07-17T05:26:42.498Z,95.80
2018-07-17T05:29:11.471Z,95.00
2018-07-17T05:31:40.441Z,94.70
2018-07-17T05:34:09.369Z,94.20
2018-07-17T05:36:38.407Z,94.10
2018-07-17T05:39:08.332Z,93.40
2018-07-17T05:41:37.305Z,93.20
2018-07-17T05:44:06.458Z,92.70
2018-07-17T05:46:35.416Z,92.00
2018-07-17T05:49:04.396Z,92.20
2018-07-17T05:51:33.365Z,90.80
2018-07-17T05:54:02.321Z,90.70
2018-07-17T05:56:31.281Z,90.30
2018-07-17T05:59:00.299Z,90.80
2018-07-17T06:01:29.693Z,89.30
2018-07-17T06:03:58.647Z,87.30
2018-07-17T06:06:27.669Z,87.30
2018-07-17T06:08:56.631Z,88.60
2018-07-17T06:11:25.557Z,87.20
2018-07-17T06:13:54.519Z,88.80
2018-07-17T06:16:23.554Z,85.70
2018-07-17T06:18:52.622Z,84.20
2018-07-17T06:23:50.313Z,82.50
2018-07-17T06:26:19.254Z,81.90
2018-07-17T06:28:48.236Z,81.70
2018-07-17T06:31:17.156Z,81.20
2018-07-17T06:33:46.086Z,78.30
2018-07-17T06:36:15.053Z,77.60
2018-07-17T06:38:44.076Z,73.10
2018-07-17T06:41:13.191Z,73.60
2018-07-17T06:43:42.280Z,73.90
2018-07-17T06:46:11.213Z,74.30
2018-07-17T06:48:40.242Z,74.80
2018-07-17T06:51:09.190Z,74.50
2018-07-17T06:53:38.193Z,73.90
2018-07-17T06:56:07.136Z,71.30
2018-07-17T06:58:36.130Z,69.70
2018-07-17T07:01:05.118Z,71.00
2018-07-17T07:03:34.047Z,69.10
2018-07-17T07:06:02.999Z,66.50
2018-07-17T07:08:32.705Z,67.40
2018-07-17T07:11:01.649Z,65.40
2018-07-17T07:13:31.133Z,62.20
2018-07-17T07:16:00.066Z,61.60
2018-07-17T07:18:29.010Z,61.30
2018-07-17T07:20:57.933Z,62.20
2018-07-17T07:23:26.981Z,61.80
2018-07-17T07:25:55.826Z,61.50
2018-07-17T07:28:24.830Z,62.40
2018-07-17T07:30:53.867Z,62.20
2018-07-17T07:33:22.710Z,64.60
2018-07-17T07:35:51.673Z,65.90
2018-07-17T07:38:20.597Z,65.80
2018-07-17T07:40:49.548Z,66.80
2018-07-17T07:43:18.497Z,66.40
2018-07-17T07:45:47.486Z,67.10
2018-07-17T07:48:16.466Z,67.40
2018-07-17T07:53:14.120Z,67.80
2018-07-17T07:55:43.066Z,66.30
2018-07-17T08:00:40.629Z,66.20
2018-07-17T08:03:09.568Z,65.60
2018-07-17T08:05:38.477Z,63.00
2018-07-17T08:08:07.686Z,62.30
2018-07-17T08:10:36.656Z,63.70
2018-07-17T08:13:05.659Z,63.20
2018-07-17T08:15:34.729Z,65.20
2018-07-17T08:18:03.682Z,63.40
2018-07-17T08:20:32.959Z,61.50
2018-07-17T08:23:01.918Z,61.40
2018-07-17T08:25:30.911Z,61.40
2018-07-17T08:27:59.973Z,61.60
2018-07-17T08:30:28.910Z,59.50
2018-07-17T08:32:57.845Z,62.00
2018-07-17T08:35:26.776Z,62.10
2018-07-17T08:37:55.747Z,62.20
2018-07-17T08:40:24.675Z,61.20
2018-07-17T08:42:53.727Z,59.20
2018-07-17T08:45:22.678Z,59.20
2018-07-17T08:47:51.869Z,58.20
2018-07-17T08:50:20.825Z,57.50
2018-07-17T08:52:49.763Z,57.30
2018-07-17T08:55:18.817Z,57.10
2018-07-17T08:57:47.773Z,56.10
2018-07-17T09:00:16.717Z,55.00
2018-07-17T09:02:45.796Z,54.90
2018-07-17T09:05:14.741Z,54.70
2018-07-17T09:07:43.802Z,54.70
2018-07-17T09:10:12.796Z,53.70
2018-07-17T09:12:41.829Z,54.10
2018-07-17T09:15:10.758Z,53.30
2018-07-17T09:17:39.804Z,52.70
2018-07-17T09:20:08.850Z,53.20
2018-07-17T09:22:37.764Z,53.10
2018-07-17T09:25:07.455Z,53.30
2018-07-17T09:27:36.417Z,53.40
2018-07-17T09:30:06.083Z,52.60
2018-07-17T09:32:35.034Z,53.10
2018-07-17T09:35:03.981Z,52.70
2018-07-17T09:37:32.945Z,51.10
2018-07-17T09:40:03.447Z,48.70
2018-07-17T09:42:32.390Z,49.20
2018-07-17T09:45:01.391Z,47.30
2018-07-17T09:47:30.464Z,47.60
2018-07-17T09:49:59.473Z,48.20
2018-07-17T09:52:28.421Z,47.50
2018-07-17T09:54:57.405Z,48.00
2018-07-17T09:57:26.330Z,45.90
2018-07-17T09:59:55.310Z,46.40
2018-07-17T10:02:27.495Z,44.20
2018-07-17T10:04:56.993Z,44.00
2018-07-17T10:07:25.932Z,42.20
2018-07-17T10:09:54.874Z,42.00
2018-07-17T10:12:24.690Z,42.10
2018-07-17T10:17:22.447Z,41.80
2018-07-17T10:19:51.386Z,40.90
2018-07-17T10:22:20.336Z,40.80
2018-07-17T10:24:49.254Z,41.70
2018-07-17T10:27:18.197Z,40.60
2018-07-17T10:29:47.147Z,39.40
2018-07-17T10:32:16.069Z,40.90
2018-07-17T10:34:45.015Z,39.30
2018-07-17T10:37:13.975Z,38.80
2018-07-17T10:39:42.929Z,40.00
2018-07-17T10:42:11.874Z,39.00
2018-07-17T10:44:40.829Z,39.40
2018-07-17T10:47:10.184Z,38.80
2018-07-17T10:49:39.186Z,38.40
2018-07-17T10:52:08.738Z,39.00
2018-07-17T10:54:37.703Z,37.20
2018-07-17T10:57:06.666Z,38.00
2018-07-17T10:59:35.667Z,38.00
2018-07-17T11:02:04.667Z,38.40
2018-07-17T11:04:33.597Z,39.40
2018-07-17T11:07:02.724Z,40.60
2018-07-17T11:09:31.622Z,41.00
2018-07-17T11:12:00.620Z,39.80
2018-07-17T11:14:29.642Z,39.80
2018-07-17T11:16:58.583Z,39.60
2018-07-17T11:19:27.524Z,40.80
2018-07-17T11:21:56.522Z,40.80
2018-07-17T11:24:25.484Z,40.00
2018-07-17T11:26:54.454Z,40.60
2018-07-17T11:29:23.470Z,39.20
2018-07-17T11:31:52.492Z,40.00
2018-07-17T11:34:21.419Z,38.60
2018-07-17T11:36:50.412Z,39.40
2018-07-17T11:39:19.369Z,38.60
2018-07-17T11:41:48.282Z,38.60
2018-07-17T11:44:17.235Z,37.90
2018-07-17T11:46:46.177Z,38.30
2018-07-17T11:49:15.109Z,38.50
2018-07-17T11:51:44.120Z,38.50
2018-07-17T11:54:13.073Z,38.10
2018-07-17T12:01:39.223Z,37.30
2018-07-17T12:04:08.266Z,37.70
2018-07-17T12:06:37.304Z,37.60
2018-07-17T12:09:07.286Z,38.20
2018-07-17T12:11:36.249Z,39.40
2018-07-17T12:14:05.262Z,38.40
2018-07-17T12:16:34.269Z,38.40
2018-07-17T12:19:03.228Z,38.70
2018-07-17T12:21:32.160Z,37.90
2018-07-17T12:24:01.130Z,38.70
2018-07-17T12:26:30.055Z,39.60
2018-07-17T12:31:27.728Z,39.30
2018-07-17T12:33:56.659Z,38.80
2018-07-17T12:36:25.660Z,37.10
2018-07-17T12:38:54.594Z,38.20
2018-07-17T12:41:23.556Z,38.20
2018-07-17T12:43:52.482Z,38.00
2018-07-17T12:46:21.435Z,38.70
2018-07-17T12:48:50.393Z,38.70
2018-07-17T12:51:19.366Z,38.00
2018-07-17T12:53:48.321Z,37.60
2018-07-17T12:56:17.327Z,36.70
2018-07-17T12:58:46.220Z,36.40
2018-07-17T13:01:15.166Z,36.40
2018-07-17T13:03:44.101Z,35.40
2018-07-17T13:06:13.163Z,35.50
2018-07-17T13:08:42.133Z,34.60
2018-07-17T13:11:11.345Z,35.30
2018-07-17T13:13:40.278Z,33.90
2018-07-17T13:16:09.591Z,35.00
2018-07-17T13:18:38.727Z,34.90
2018-07-17T13:21:07.707Z,34.10
2018-07-17T13:23:36.739Z,35.20
2018-07-17T13:26:05.697Z,34.40
2018-07-17T13:28:34.649Z,35.00
2018-07-17T13:31:03.696Z,35.90
2018-07-17T13:33:32.656Z,36.60
2018-07-17T13:36:01.594Z,37.90
2018-07-17T13:40:59.119Z,37.90
2018-07-17T13:43:28.056Z,38.30
2018-07-17T13:45:57.039Z,38.60
2018-07-17T13:48:25.979Z,38.80
2018-07-17T13:50:54.928Z,37.20
2018-07-17T13:53:23.866Z,37.90
2018-07-17T13:55:52.827Z,37.20
2018-07-17T13:58:21.805Z,37.00
2018-07-17T14:00:50.977Z,37.80
2018-07-17T14:03:19.907Z,38.40
2018-07-17T14:05:48.860Z,38.80
2018-07-17T14:08:17.807Z,38.80
2018-07-17T14:10:46.751Z,39.80
2018-07-17T14:13:15.691Z,40.00
2018-07-17T14:15:44.649Z,37.60
2018-07-17T14:18:13.616Z,38.20
2018-07-17T14:20:42.554Z,37.90
2018-07-17T14:23:11.493Z,38.10
2018-07-17T14:25:40.443Z,37.60
2018-07-17T14:28:09.404Z,38.40
2018-07-17T14:30:38.389Z,38.70
2018-07-17T14:33:07.402Z,38.40
2018-07-17T14:35:36.367Z,38.40
2018-07-17T14:38:05.358Z,38.80
2018-07-17T14:43:02.945Z,39.40
2018-07-17T14:45:31.930Z,40.30
2018-07-17T14:48:00.876Z,40.00
2018-07-17T14:50:29.817Z,40.10
2018-07-17T14:52:58.973Z,41.70
2018-07-17T14:55:28.029Z,43.00
2018-07-17T14:57:57.033Z,43.10
2018-07-17T15:00:26.022Z,41.40
2018-07-17T15:02:54.985Z,41.70
2018-07-17T15:05:23.951Z,41.40
2018-07-17T15:07:53.096Z,41.00
2018-07-17T15:10:22.042Z,41.10
2018-07-17T15:12:50.989Z,40.50
2018-07-17T15:15:19.933Z,41.00
2018-07-17T15:17:48.867Z,41.40
2018-07-17T15:20:18.454Z,41.40
2018-07-17T15:22:47.467Z,40.90
2018-07-17T15:25:16.454Z,40.10
2018-07-17T15:27:45.474Z,42.30
2018-07-17T15:30:14.413Z,42.30
2018-07-17T15:32:43.409Z,43.70
2018-07-17T15:35:12.487Z,43.20
2018-07-17T15:37:41.513Z,43.60
2018-07-17T15:40:10.491Z,43.80
2018-07-17T15:42:39.525Z,42.60
2018-07-17T15:45:08.445Z,42.70
2018-07-17T15:47:37.461Z,43.00
2018-07-17T15:50:06.453Z,43.30
2018-07-17T15:52:35.428Z,43.70
2018-07-17T15:55:04.383Z,42.50
2018-07-17T15:57:33.313Z,43.00
2018-07-17T16:00:02.473Z,42.90
2018-07-17T16:02:31.538Z,43.90
2018-07-17T16:05:00.630Z,44.60
2018-07-17T16:07:29.659Z,44.90
2018-07-17T16:09:58.702Z,45.60
2018-07-17T16:12:27.769Z,45.80
2018-07-17T16:14:56.884Z,45.70
2018-07-17T16:17:25.882Z,46.00
2018-07-17T16:19:54.831Z,46.40
2018-07-17T16:22:23.782Z,47.20
2018-07-17T16:24:52.713Z,47.40
2018-07-17T16:27:21.689Z,46.20
2018-07-17T16:32:19.439Z,47.20
2018-07-17T16:34:48.425Z,47.80
2018-07-17T16:37:17.418Z,49.40
2018-07-17T16:42:15.065Z,48.30
2018-07-17T16:44:43.970Z,48.10
2018-07-17T16:47:12.976Z,47.70
2018-07-17T16:49:41.970Z,46.70
2018-07-17T16:52:10.878Z,46.90
2018-07-17T16:54:39.813Z,47.30
2018-07-17T16:57:12.786Z,47.60
2018-07-17T16:59:43.155Z,47.50
2018-07-17T17:02:13.264Z,48.10
2018-07-17T17:04:43.284Z,49.60
2018-07-17T17:07:13.459Z,49.70
2018-07-17T17:09:43.134Z,49.90
2018-07-17T17:12:12.406Z,51.00
2018-07-17T17:14:42.502Z,52.80
2018-07-17T17:17:12.118Z,52.70
2018-07-17T17:19:42.061Z,54.30
2018-07-17T17:22:11.102Z,54.60
2018-07-17T17:24:40.158Z,55.20
2018-07-17T17:27:09.058Z,55.80
2018-07-17T17:29:38.190Z,56.10
2018-07-17T17:32:07.137Z,56.30
2018-07-17T17:34:36.102Z,56.30
2018-07-17T17:37:05.200Z,56.70
2018-07-17T17:39:34.297Z,57.30
2018-07-17T17:42:03.140Z,57.60
2018-07-17T17:44:32.092Z,58.40
2018-07-17T17:47:01.050Z,58.30
2018-07-17T17:49:30.108Z,59.10
2018-07-17T17:51:59.075Z,59.30
2018-07-17T17:54:28.003Z,59.80
2018-07-17T17:56:56.953Z,59.60
2018-07-17T17:59:25.898Z,60.00
2018-07-17T18:01:54.902Z,60.20
2018-07-17T18:04:24.098Z,60.40
2018-07-17T18:06:53.006Z,61.10
2018-07-17T18:11:50.572Z,62.10
2018-07-17T18:14:19.508Z,61.60
2018-07-17T18:16:48.483Z,61.40
2018-07-17T18:19:17.813Z,61.50
2018-07-17T18:21:47.038Z,61.50
2018-07-17T18:24:15.993Z,62.20
2018-07-17T18:26:45.253Z,61.90
2018-07-17T18:29:14.218Z,61.90
2018-07-17T18:31:43.154Z,62.80
2018-07-17T18:34:12.148Z,62.80
2018-07-17T18:36:41.132Z,63.50
2018-07-17T18:39:10.117Z,63.80
2018-07-17T18:41:39.194Z,63.10
2018-07-17T18:46:36.646Z,63.80
2018-07-17T18:49:05.593Z,63.90
2018-07-17T18:51:34.531Z,64.40
2018-07-17T18:54:03.489Z,64.70
2018-07-17T18:56:32.447Z,65.00
2018-07-17T19:01:31.045Z,66.20
2018-07-17T19:04:00.023Z,66.30
2018-07-17T19:06:29.320Z,66.10
2018-07-17T19:08:58.287Z,66.90
2018-07-17T19:11:27.613Z,65.90
2018-07-17T19:13:56.502Z,65.20
2018-07-17T19:16:25.463Z,63.80
2018-07-17T19:18:54.590Z,64.40
2018-07-17T19:23:52.135Z,64.70
2018-07-17T19:26:21.067Z,65.10
2018-07-17T19:28:49.996Z,64.10
2018-07-17T19:31:18.902Z,64.50
2018-07-17T19:33:47.861Z,63.30
2018-07-17T19:36:17.228Z,62.90
2018-07-17T19:38:46.176Z,62.80
2018-07-17T19:41:15.128Z,63.90
2018-07-17T19:43:44.205Z,64.80
2018-07-17T19:46:13.210Z,64.60
2018-07-17T19:48:42.239Z,65.50
2018-07-17T19:51:11.190Z,66.30
2018-07-17T19:53:40.152Z,66.80
2018-07-17T19:56:09.136Z,67.50
2018-07-17T19:58:38.077Z,68.80
2018-07-17T20:01:07.101Z,69.60
2018-07-17T20:03:36.034Z,71.10
2018-07-17T20:06:05.044Z,73.80
2018-07-17T20:08:34.061Z,73.60
2018-07-17T20:11:02.963Z,74.40
2018-07-17T20:13:31.946Z,74.90
2018-07-17T20:16:01.082Z,75.80
2018-07-17T20:18:30.776Z,75.60
2018-07-17T20:20:59.757Z,75.30
2018-07-17T20:23:28.726Z,73.70
2018-07-17T20:25:57.686Z,72.20
2018-07-17T20:28:26.650Z,73.80
2018-07-17T20:30:55.623Z,73.30
2018-07-17T20:33:24.551Z,73.70
2018-07-17T20:35:53.487Z,74.50
2018-07-17T20:38:22.445Z,74.50
2018-07-17T20:40:51.433Z,75.20
2018-07-17T20:43:20.341Z,76.00
2018-07-17T20:45:49.281Z,77.00
2018-07-17T20:48:18.205Z,77.60
2018-07-17T20:50:47.146Z,78.50
2018-07-17T20:53:16.082Z,79.30
2018-07-17T20:55:45.026Z,79.70
2018-07-17T20:58:13.977Z,80.50
2018-07-17T21:00:42.941Z,80.60
2018-07-17T21:03:11.965Z,81.50
2018-07-17T21:05:40.953Z,82.40
2018-07-17T21:08:09.872Z,82.80
2018-07-17T21:10:38.792Z,82.80
2018-07-17T21:13:07.777Z,84.00
2018-07-17T21:15:36.724Z,84.20
2018-07-17T21:18:05.652Z,85.10
2018-07-17T21:20:34.606Z,85.50
2018-07-17T21:23:03.556Z,85.80
2018-07-17T21:25:32.484Z,86.70
2018-07-17T21:28:01.434Z,86.50
2018-07-17T21:30:30.410Z,87.70
2018-07-17T21:32:59.353Z,87.50
2018-07-17T21:35:28.381Z,87.90
2018-07-17T21:37:57.377Z,88.30
2018-07-17T21:40:26.404Z,88.80
2018-07-17T21:42:55.375Z,89.20
2018-07-17T21:45:24.299Z,89.90
2018-07-17T21:47:53.229Z,90.10
2018-07-17T21:50:22.178Z,90.30
2018-07-17T21:52:51.114Z,90.40
2018-07-17T21:55:20.110Z,90.60
2018-07-17T21:57:49.026Z,90.60
2018-07-17T22:00:18.001Z,91.00
2018-07-17T22:02:46.929Z,91.00
2018-07-17T22:05:15.869Z,91.10
2018-07-17T22:07:44.821Z,91.40
2018-07-17T22:10:13.837Z,91.60
2018-07-17T22:12:43.061Z,91.90
2018-07-17T22:17:40.631Z,92.10
2018-07-17T22:20:09.543Z,92.20
2018-07-17T22:22:38.504Z,92.50
2018-07-17T22:25:07.426Z,92.40
2018-07-17T22:27:36.351Z,92.50
2018-07-17T22:30:05.321Z,92.90
2018-07-17T22:32:34.272Z,92.80
2018-07-17T22:35:03.223Z,93.60
2018-07-17T22:37:32.184Z,93.80
2018-07-17T22:40:01.116Z,93.40
2018-07-17T22:42:30.088Z,93.70
2018-07-17T22:44:59.098Z,93.50
2018-07-17T22:47:28.108Z,93.70
2018-07-17T22:52:25.655Z,93.80
2018-07-17T22:54:54.602Z,94.20
2018-07-17T22:57:24.420Z,94.30
2018-07-17T22:59:53.398Z,94.30
2018-07-17T23:02:22.300Z,95.20
2018-07-17T23:04:51.227Z,95.40
2018-07-17T23:07:20.195Z,95.10
2018-07-17T23:09:49.601Z,95.20
2018-07-17T23:12:18.561Z,95.80
2018-07-17T23:14:47.517Z,95.90
2018-07-17T23:17:16.539Z,95.70
2018-07-17T23:19:45.506Z,96.10
2018-07-17T23:22:18.179Z,96.20
2018-07-17T23:24:47.121Z,96.50
2018-07-17T23:27:16.065Z,96.40
2018-07-17T23:29:45.053Z,96.50
2018-07-17T23:32:14.001Z,96.70
2018-07-17T23:34:43.150Z,96.80
2018-07-17T23:37:12.036Z,96.70
2018-07-17T23:39:40.972Z,96.50
2018-07-17T23:42:09.913Z,96.70
2018-07-17T23:44:38.861Z,97.30
2018-07-17T23:47:07.813Z,97.70
2018-07-17T23:49:38.802Z,98.00
2018-07-17T23:52:08.422Z,98.10
2018-07-17T23:54:37.409Z,98.10
2018-07-17T23:57:06.529Z,98.10
2018-07-17T23:59:35.526Z,98.70
